sensor_id;sensor_type;location;lat;lon;timestamp;pressure;altitude;pressure_sealevel;temperature;humidity
20350;BME280;10332;50.208;18.988;2023-04-08T00:02:19;98140.06;;;5.44;95.27
20350;BME280;10332;50.208;18.988;2023-04-08T00:04:47;98139.59;;;5.36;95.33
20350;BME280;10332;50.208;18.988;2023-04-08T00:07:16;98140.16;;;5.24;95.69
20350;BME280;10332;50.208;18.988;2023-04-08T00:09:43;98142.25;;;5.34;95.29
20350;BME280;10332;50.208;18.988;2023-04-08T00:12:11;98151.00;;;5.32;94.95
20350;BME280;10332;50.208;18.988;2023-04-08T00:14:39;98148.59;;;5.27;94.79
20350;BME280;10332;50.208;18.988;2023-04-08T00:17:07;98149.25;;;5.13;95.27
20350;BME280;10332;50.208;18.988;2023-04-08T00:19:35;98151.00;;;5.13;95.65
20350;BME280;10332;50.208;18.988;2023-04-08T00:22:03;98152.53;;;5.17;95.49
20350;BME280;10332;50.208;18.988;2023-04-08T00:24:31;98153.28;;;5.19;95.74
20350;BME280;10332;50.208;18.988;2023-04-08T00:26:58;98155.88;;;5.19;95.71
20350;BME280;10332;50.208;18.988;2023-04-08T00:29:25;98158.34;;;5.22;96.00
20350;BME280;10332;50.208;18.988;2023-04-08T00:31:53;98156.53;;;5.24;96.03
20350;BME280;10332;50.208;18.988;2023-04-08T00:34:20;98164.28;;;5.24;95.97
20350;BME280;10332;50.208;18.988;2023-04-08T00:36:48;98171.38;;;5.39;95.27
20350;BME280;10332;50.208;18.988;2023-04-08T00:39:15;98165.97;;;5.25;95.06
20350;BME280;10332;50.208;18.988;2023-04-08T00:41:43;98166.72;;;5.27;94.70
20350;BME280;10332;50.208;18.988;2023-04-08T00:44:10;98167.97;;;5.19;94.83
20350;BME280;10332;50.208;18.988;2023-04-08T00:46:39;98165.63;;;5.14;94.96
20350;BME280;10332;50.208;18.988;2023-04-08T00:49:07;98174.16;;;5.35;93.33
20350;BME280;10332;50.208;18.988;2023-04-08T00:51:34;98175.97;;;5.14;93.91
20350;BME280;10332;50.208;18.988;2023-04-08T00:54:05;98171.63;;;5.15;93.90
20350;BME280;10332;50.208;18.988;2023-04-08T00:56:33;98182.91;;;5.13;94.51
20350;BME280;10332;50.208;18.988;2023-04-08T00:59:03;98169.66;;;5.20;93.99
20350;BME280;10332;50.208;18.988;2023-04-08T01:01:43;98168.69;;;5.22;93.88
20350;BME280;10332;50.208;18.988;2023-04-08T01:07:24;98172.66;;;5.29;93.23
20350;BME280;10332;50.208;18.988;2023-04-08T01:10:02;98183.31;;;5.23;92.81
20350;BME280;10332;50.208;18.988;2023-04-08T01:12:36;98186.44;;;5.11;92.82
20350;BME280;10332;50.208;18.988;2023-04-08T01:15:10;98182.31;;;5.26;92.77
20350;BME280;10332;50.208;18.988;2023-04-08T01:17:39;98179.97;;;5.21;92.64
20350;BME280;10332;50.208;18.988;2023-04-08T01:20:09;98180.84;;;5.20;92.76
20350;BME280;10332;50.208;18.988;2023-04-08T01:25:22;98180.13;;;4.98;93.85
20350;BME280;10332;50.208;18.988;2023-04-08T01:27:52;98185.59;;;5.10;93.72
20350;BME280;10332;50.208;18.988;2023-04-08T01:30:24;98186.44;;;5.11;93.34
20350;BME280;10332;50.208;18.988;2023-04-08T01:32:54;98184.91;;;5.07;93.43
20350;BME280;10332;50.208;18.988;2023-04-08T01:35:23;98175.47;;;5.06;93.40
20350;BME280;10332;50.208;18.988;2023-04-08T01:37:52;98181.34;;;5.09;93.11
20350;BME280;10332;50.208;18.988;2023-04-08T01:40:20;98177.91;;;5.09;93.36
20350;BME280;10332;50.208;18.988;2023-04-08T01:42:49;98192.53;;;5.10;92.84
20350;BME280;10332;50.208;18.988;2023-04-08T01:45:19;98196.44;;;5.00;92.98
20350;BME280;10332;50.208;18.988;2023-04-08T01:47:48;98189.97;;;4.90;93.36
20350;BME280;10332;50.208;18.988;2023-04-08T01:50:19;98182.00;;;4.94;93.32
20350;BME280;10332;50.208;18.988;2023-04-08T01:52:49;98188.31;;;4.89;93.56
20350;BME280;10332;50.208;18.988;2023-04-08T01:55:20;98194.34;;;4.69;94.16
20350;BME280;10332;50.208;18.988;2023-04-08T01:57:51;98196.22;;;4.86;93.87
20350;BME280;10332;50.208;18.988;2023-04-08T02:00:29;98194.66;;;4.81;93.92
20350;BME280;10332;50.208;18.988;2023-04-08T02:02:58;98196.00;;;4.90;93.53
20350;BME280;10332;50.208;18.988;2023-04-08T02:05:27;98200.72;;;4.80;93.93
20350;BME280;10332;50.208;18.988;2023-04-08T02:07:54;98200.41;;;4.88;93.76
20350;BME280;10332;50.208;18.988;2023-04-08T02:10:22;98196.31;;;4.82;93.51
20350;BME280;10332;50.208;18.988;2023-04-08T02:12:49;98199.19;;;4.76;94.13
20350;BME280;10332;50.208;18.988;2023-04-08T02:15:17;98201.81;;;4.75;94.34
20350;BME280;10332;50.208;18.988;2023-04-08T02:17:54;98198.84;;;4.84;92.81
20350;BME280;10332;50.208;18.988;2023-04-08T02:20:30;98206.81;;;4.59;93.55
20350;BME280;10332;50.208;18.988;2023-04-08T02:25:30;98204.41;;;4.54;94.45
20350;BME280;10332;50.208;18.988;2023-04-08T02:28:05;98203.97;;;4.65;93.41
20350;BME280;10332;50.208;18.988;2023-04-08T02:30:36;98209.53;;;4.76;92.87
20350;BME280;10332;50.208;18.988;2023-04-08T02:33:07;98214.50;;;4.81;92.47
20350;BME280;10332;50.208;18.988;2023-04-08T02:35:37;98212.47;;;4.67;92.63
20350;BME280;10332;50.208;18.988;2023-04-08T02:38:08;98216.25;;;4.60;92.74
20350;BME280;10332;50.208;18.988;2023-04-08T02:40:36;98211.94;;;4.61;92.57
20350;BME280;10332;50.208;18.988;2023-04-08T02:43:04;98217.72;;;4.45;93.40
20350;BME280;10332;50.208;18.988;2023-04-08T02:45:37;98217.59;;;4.48;93.24
20350;BME280;10332;50.208;18.988;2023-04-08T02:48:05;98222.19;;;4.42;93.69
20350;BME280;10332;50.208;18.988;2023-04-08T02:50:33;98219.19;;;4.31;94.24
20350;BME280;10332;50.208;18.988;2023-04-08T02:53:01;98225.03;;;4.36;94.37
20350;BME280;10332;50.208;18.988;2023-04-08T02:55:28;98226.06;;;4.32;94.33
20350;BME280;10332;50.208;18.988;2023-04-08T02:57:56;98230.47;;;4.50;93.81
20350;BME280;10332;50.208;18.988;2023-04-08T03:00:23;98231.69;;;4.41;93.36
20350;BME280;10332;50.208;18.988;2023-04-08T03:02:50;98235.16;;;4.40;93.35
20350;BME280;10332;50.208;18.988;2023-04-08T03:05:18;98239.75;;;4.34;93.19
20350;BME280;10332;50.208;18.988;2023-04-08T03:07:46;98236.03;;;4.41;93.66
20350;BME280;10332;50.208;18.988;2023-04-08T03:10:15;98242.28;;;4.55;92.90
20350;BME280;10332;50.208;18.988;2023-04-08T03:12:43;98241.91;;;4.44;92.72
20350;BME280;10332;50.208;18.988;2023-04-08T03:15:10;98243.03;;;4.37;93.06
20350;BME280;10332;50.208;18.988;2023-04-08T03:17:37;98244.34;;;4.47;92.98
20350;BME280;10332;50.208;18.988;2023-04-08T03:20:06;98247.13;;;4.43;92.46
20350;BME280;10332;50.208;18.988;2023-04-08T03:22:35;98241.66;;;4.50;91.92
20350;BME280;10332;50.208;18.988;2023-04-08T03:25:02;98253.84;;;4.47;91.97
20350;BME280;10332;50.208;18.988;2023-04-08T03:27:30;98252.63;;;4.55;91.60
20350;BME280;10332;50.208;18.988;2023-04-08T03:29:58;98244.28;;;4.49;91.32
20350;BME280;10332;50.208;18.988;2023-04-08T03:32:25;98254.88;;;4.43;90.49
20350;BME280;10332;50.208;18.988;2023-04-08T03:34:53;98253.06;;;4.45;90.60
20350;BME280;10332;50.208;18.988;2023-04-08T03:37:20;98259.47;;;4.36;90.41
20350;BME280;10332;50.208;18.988;2023-04-08T03:39:48;98255.84;;;4.40;90.79
20350;BME280;10332;50.208;18.988;2023-04-08T03:42:15;98261.28;;;4.34;91.12
20350;BME280;10332;50.208;18.988;2023-04-08T03:44:43;98262.09;;;4.35;90.78
20350;BME280;10332;50.208;18.988;2023-04-08T03:47:10;98260.00;;;4.44;90.13
20350;BME280;10332;50.208;18.988;2023-04-08T03:49:37;98264.56;;;4.38;89.41
20350;BME280;10332;50.208;18.988;2023-04-08T03:52:05;98267.41;;;4.32;89.56
20350;BME280;10332;50.208;18.988;2023-04-08T03:54:33;98262.28;;;4.30;89.90
20350;BME280;10332;50.208;18.988;2023-04-08T03:57:00;98270.22;;;4.25;89.61
20350;BME280;10332;50.208;18.988;2023-04-08T03:59:28;98265.41;;;4.38;89.40
20350;BME280;10332;50.208;18.988;2023-04-08T04:01:56;98273.59;;;4.27;89.48
20350;BME280;10332;50.208;18.988;2023-04-08T04:04:23;98274.63;;;4.23;90.06
20350;BME280;10332;50.208;18.988;2023-04-08T04:06:51;98278.69;;;4.29;89.84
20350;BME280;10332;50.208;18.988;2023-04-08T04:09:18;98279.72;;;4.25;89.73
20350;BME280;10332;50.208;18.988;2023-04-08T04:11:46;98282.47;;;4.20;90.25
20350;BME280;10332;50.208;18.988;2023-04-08T04:14:13;98285.97;;;4.19;90.26
20350;BME280;10332;50.208;18.988;2023-04-08T04:16:41;98287.53;;;4.23;89.98
20350;BME280;10332;50.208;18.988;2023-04-08T04:19:08;98282.59;;;4.17;90.19
20350;BME280;10332;50.208;18.988;2023-04-08T04:21:36;98292.56;;;4.26;90.46
20350;BME280;10332;50.208;18.988;2023-04-08T04:24:03;98288.09;;;4.32;90.25
20350;BME280;10332;50.208;18.988;2023-04-08T04:26:31;98302.13;;;4.24;90.84
20350;BME280;10332;50.208;18.988;2023-04-08T04:28:59;98295.09;;;4.28;90.53
20350;BME280;10332;50.208;18.988;2023-04-08T04:31:26;98294.13;;;4.31;90.21
20350;BME280;10332;50.208;18.988;2023-04-08T04:33:54;98298.81;;;4.43;90.16
20350;BME280;10332;50.208;18.988;2023-04-08T04:36:21;98292.09;;;4.39;89.74
20350;BME280;10332;50.208;18.988;2023-04-08T04:38:49;98299.59;;;4.45;89.48
20350;BME280;10332;50.208;18.988;2023-04-08T04:41:18;98303.78;;;4.47;89.80
20350;BME280;10332;50.208;18.988;2023-04-08T04:43:45;98303.56;;;4.53;89.61
20350;BME280;10332;50.208;18.988;2023-04-08T04:46:13;98303.19;;;4.63;88.92
20350;BME280;10332;50.208;18.988;2023-04-08T04:48:40;98310.34;;;4.56;89.14
20350;BME280;10332;50.208;18.988;2023-04-08T04:51:08;98314.59;;;4.57;89.59
20350;BME280;10332;50.208;18.988;2023-04-08T04:53:35;98313.13;;;4.51;89.93
20350;BME280;10332;50.208;18.988;2023-04-08T04:56:03;98328.91;;;4.66;89.30
20350;BME280;10332;50.208;18.988;2023-04-08T04:58:30;98312.56;;;4.65;89.17
20350;BME280;10332;50.208;18.988;2023-04-08T05:00:58;98321.44;;;4.80;88.67
20350;BME280;10332;50.208;18.988;2023-04-08T05:03:25;98325.16;;;4.95;87.38
20350;BME280;10332;50.208;18.988;2023-04-08T05:05:53;98329.66;;;4.90;87.40
20350;BME280;10332;50.208;18.988;2023-04-08T05:08:21;98325.53;;;4.86;87.37
20350;BME280;10332;50.208;18.988;2023-04-08T05:10:49;98332.19;;;4.91;87.15
20350;BME280;10332;50.208;18.988;2023-04-08T05:13:17;98332.19;;;4.91;86.98
20350;BME280;10332;50.208;18.988;2023-04-08T05:15:45;98338.72;;;5.00;86.50
20350;BME280;10332;50.208;18.988;2023-04-08T05:18:12;98339.81;;;4.94;86.55
20350;BME280;10332;50.208;18.988;2023-04-08T05:20:40;98337.41;;;4.90;86.48
20350;BME280;10332;50.208;18.988;2023-04-08T05:23:07;98344.72;;;5.00;85.89
20350;BME280;10332;50.208;18.988;2023-04-08T05:25:35;98343.75;;;5.03;85.99
20350;BME280;10332;50.208;18.988;2023-04-08T05:28:03;98345.56;;;5.01;85.84
20350;BME280;10332;50.208;18.988;2023-04-08T05:30:31;98352.63;;;5.18;85.53
20350;BME280;10332;50.208;18.988;2023-04-08T05:32:58;98349.88;;;5.22;85.63
20350;BME280;10332;50.208;18.988;2023-04-08T05:35:27;98350.00;;;5.39;85.18
20350;BME280;10332;50.208;18.988;2023-04-08T05:37:55;98353.56;;;5.56;84.76
20350;BME280;10332;50.208;18.988;2023-04-08T05:40:22;98355.31;;;5.55;84.12
20350;BME280;10332;50.208;18.988;2023-04-08T05:42:50;98355.75;;;5.65;84.25
20350;BME280;10332;50.208;18.988;2023-04-08T05:45:17;98360.81;;;5.68;84.41
20350;BME280;10332;50.208;18.988;2023-04-08T05:47:45;98366.09;;;5.85;83.93
20350;BME280;10332;50.208;18.988;2023-04-08T05:50:13;98369.34;;;5.90;84.02
20350;BME280;10332;50.208;18.988;2023-04-08T05:52:44;98364.50;;;6.02;82.44
20350;BME280;10332;50.208;18.988;2023-04-08T05:55:13;98373.69;;;6.09;81.62
20350;BME280;10332;50.208;18.988;2023-04-08T05:57:41;98377.59;;;5.98;82.63
20350;BME280;10332;50.208;18.988;2023-04-08T06:00:09;98372.72;;;6.30;81.89
20350;BME280;10332;50.208;18.988;2023-04-08T06:02:37;98376.63;;;6.20;82.73
20350;BME280;10332;50.208;18.988;2023-04-08T06:05:06;98379.28;;;6.37;81.75
20350;BME280;10332;50.208;18.988;2023-04-08T06:07:33;98393.97;;;6.38;82.16
20350;BME280;10332;50.208;18.988;2023-04-08T06:10:01;98387.13;;;6.54;81.40
20350;BME280;10332;50.208;18.988;2023-04-08T06:12:29;98388.78;;;6.55;80.97
20350;BME280;10332;50.208;18.988;2023-04-08T06:14:56;98389.22;;;6.65;80.22
20350;BME280;10332;50.208;18.988;2023-04-08T06:17:24;98398.44;;;6.71;78.95
20350;BME280;10332;50.208;18.988;2023-04-08T06:19:52;98396.41;;;6.77;78.25
20350;BME280;10332;50.208;18.988;2023-04-08T06:22:19;98384.06;;;7.00;78.04
20350;BME280;10332;50.208;18.988;2023-04-08T06:24:47;98393.72;;;7.15;76.56
20350;BME280;10332;50.208;18.988;2023-04-08T06:27:14;98398.16;;;7.30;76.45
20350;BME280;10332;50.208;18.988;2023-04-08T06:29:42;98401.13;;;7.40;75.05
20350;BME280;10332;50.208;18.988;2023-04-08T06:32:10;98413.09;;;7.60;74.48
20350;BME280;10332;50.208;18.988;2023-04-08T06:34:38;98408.47;;;8.15;72.89
20350;BME280;10332;50.208;18.988;2023-04-08T06:37:05;98414.41;;;8.66;70.90
20350;BME280;10332;50.208;18.988;2023-04-08T06:39:33;98416.50;;;9.21;68.87
20350;BME280;10332;50.208;18.988;2023-04-08T06:42:00;98418.47;;;9.32;69.23
20350;BME280;10332;50.208;18.988;2023-04-08T06:44:28;98431.16;;;9.82;66.58
20350;BME280;10332;50.208;18.988;2023-04-08T06:46:55;98433.72;;;9.54;65.12
20350;BME280;10332;50.208;18.988;2023-04-08T06:49:23;98436.88;;;9.59;65.20
20350;BME280;10332;50.208;18.988;2023-04-08T06:51:50;98431.84;;;10.00;64.77
20350;BME280;10332;50.208;18.988;2023-04-08T06:54:18;98430.28;;;10.26;63.23
20350;BME280;10332;50.208;18.988;2023-04-08T06:56:45;98439.09;;;9.95;64.50
20350;BME280;10332;50.208;18.988;2023-04-08T06:59:13;98429.00;;;10.60;62.54
20350;BME280;10332;50.208;18.988;2023-04-08T07:01:41;98431.72;;;9.87;64.70
20350;BME280;10332;50.208;18.988;2023-04-08T07:04:09;98437.91;;;9.56;65.10
20350;BME280;10332;50.208;18.988;2023-04-08T07:06:36;98444.16;;;9.68;63.49
20350;BME280;10332;50.208;18.988;2023-04-08T07:09:04;98441.59;;;9.38;64.95
20350;BME280;10332;50.208;18.988;2023-04-08T07:11:31;98439.84;;;9.83;63.23
20350;BME280;10332;50.208;18.988;2023-04-08T07:13:59;98446.44;;;10.60;60.79
20350;BME280;10332;50.208;18.988;2023-04-08T07:16:26;98444.13;;;12.39;56.16
20350;BME280;10332;50.208;18.988;2023-04-08T07:18:54;98446.75;;;14.29;51.70
20350;BME280;10332;50.208;18.988;2023-04-08T07:21:21;98434.47;;;15.07;48.43
20350;BME280;10332;50.208;18.988;2023-04-08T07:23:49;98426.88;;;17.09;43.76
20350;BME280;10332;50.208;18.988;2023-04-08T07:26:16;98429.22;;;19.98;38.64
20350;BME280;10332;50.208;18.988;2023-04-08T07:28:44;98438.47;;;22.12;35.26
20350;BME280;10332;50.208;18.988;2023-04-08T07:31:17;98438.25;;;22.77;32.46
20350;BME280;10332;50.208;18.988;2023-04-08T07:33:45;98442.66;;;24.75;28.94
20350;BME280;10332;50.208;18.988;2023-04-08T07:36:13;98451.88;;;25.81;27.00
20350;BME280;10332;50.208;18.988;2023-04-08T07:38:41;98469.91;;;23.88;29.54
20350;BME280;10332;50.208;18.988;2023-04-08T07:41:09;98463.03;;;26.12;26.89
20350;BME280;10332;50.208;18.988;2023-04-08T07:43:36;98469.38;;;24.45;27.26
20350;BME280;10332;50.208;18.988;2023-04-08T07:46:05;98477.69;;;22.02;30.70
20350;BME280;10332;50.208;18.988;2023-04-08T07:48:34;98475.66;;;20.54;33.38
20350;BME280;10332;50.208;18.988;2023-04-08T07:51:08;98475.81;;;19.29;34.98
20350;BME280;10332;50.208;18.988;2023-04-08T07:53:38;98467.59;;;25.11;27.95
20350;BME280;10332;50.208;18.988;2023-04-08T07:56:11;98459.81;;;22.51;30.81
20350;BME280;10332;50.208;18.988;2023-04-08T07:58:40;98464.19;;;20.02;33.75
20350;BME280;10332;50.208;18.988;2023-04-08T08:01:22;98463.31;;;22.44;30.99
20350;BME280;10332;50.208;18.988;2023-04-08T08:03:50;98454.44;;;25.10;27.49
20350;BME280;10332;50.208;18.988;2023-04-08T08:06:20;98465.53;;;28.90;23.88
20350;BME280;10332;50.208;18.988;2023-04-08T08:08:48;98469.84;;;29.49;23.38
20350;BME280;10332;50.208;18.988;2023-04-08T08:11:16;98470.84;;;32.23;21.17
20350;BME280;10332;50.208;18.988;2023-04-08T08:13:43;98466.28;;;27.79;23.23
20350;BME280;10332;50.208;18.988;2023-04-08T08:16:11;98482.00;;;30.83;20.75
20350;BME280;10332;50.208;18.988;2023-04-08T08:18:40;98482.38;;;32.88;19.61
20350;BME280;10332;50.208;18.988;2023-04-08T08:21:08;98466.72;;;35.47;17.98
20350;BME280;10332;50.208;18.988;2023-04-08T08:23:36;98469.50;;;34.09;18.06
20350;BME280;10332;50.208;18.988;2023-04-08T08:26:08;98469.38;;;37.54;16.55
20350;BME280;10332;50.208;18.988;2023-04-08T08:28:38;98485.31;;;40.36;15.06
20350;BME280;10332;50.208;18.988;2023-04-08T08:31:05;98473.91;;;41.43;13.95
20350;BME280;10332;50.208;18.988;2023-04-08T08:33:33;98486.06;;;41.56;13.09
20350;BME280;10332;50.208;18.988;2023-04-08T08:36:01;98481.28;;;42.32;12.08
20350;BME280;10332;50.208;18.988;2023-04-08T08:38:32;98473.06;;;41.99;12.43
20350;BME280;10332;50.208;18.988;2023-04-08T08:41:00;98480.41;;;43.69;12.18
20350;BME280;10332;50.208;18.988;2023-04-08T08:43:28;98481.19;;;44.67;11.89
20350;BME280;10332;50.208;18.988;2023-04-08T08:45:59;98482.84;;;45.43;11.60
20350;BME280;10332;50.208;18.988;2023-04-08T08:48:27;98482.72;;;44.91;10.75
20350;BME280;10332;50.208;18.988;2023-04-08T08:50:54;98482.94;;;46.33;10.25
20350;BME280;10332;50.208;18.988;2023-04-08T08:53:29;98488.63;;;47.34;10.01
20350;BME280;10332;50.208;18.988;2023-04-08T08:56:01;98489.31;;;47.93;10.09
20350;BME280;10332;50.208;18.988;2023-04-08T08:58:43;98487.34;;;44.73;10.64
20350;BME280;10332;50.208;18.988;2023-04-08T09:01:31;98498.66;;;44.94;10.57
20350;BME280;10332;50.208;18.988;2023-04-08T09:04:18;98495.59;;;45.04;10.04
20350;BME280;10332;50.208;18.988;2023-04-08T09:07:08;98505.97;;;44.59;10.25
20350;BME280;10332;50.208;18.988;2023-04-08T09:09:49;98488.53;;;41.15;11.98
20350;BME280;10332;50.208;18.988;2023-04-08T09:12:17;98508.22;;;44.12;11.03
20350;BME280;10332;50.208;18.988;2023-04-08T09:14:45;98494.28;;;45.10;9.86
20350;BME280;10332;50.208;18.988;2023-04-08T09:17:14;98511.94;;;47.95;9.33
20350;BME280;10332;50.208;18.988;2023-04-08T09:20:08;98514.53;;;48.13;8.44
20350;BME280;10332;50.208;18.988;2023-04-08T09:22:57;98520.34;;;49.79;8.00
20350;BME280;10332;50.208;18.988;2023-04-08T09:25:28;98510.84;;;51.15;7.89
20350;BME280;10332;50.208;18.988;2023-04-08T09:27:57;98521.47;;;51.83;7.76
20350;BME280;10332;50.208;18.988;2023-04-08T09:30:26;98500.56;;;50.08;7.57
20350;BME280;10332;50.208;18.988;2023-04-08T09:32:56;98516.91;;;51.04;7.07
20350;BME280;10332;50.208;18.988;2023-04-08T09:35:24;98505.81;;;52.17;7.18
20350;BME280;10332;50.208;18.988;2023-04-08T09:37:52;98522.19;;;53.40;6.77
20350;BME280;10332;50.208;18.988;2023-04-08T09:40:21;98514.41;;;53.86;6.97
20350;BME280;10332;50.208;18.988;2023-04-08T09:42:53;98517.16;;;53.23;6.77
20350;BME280;10332;50.208;18.988;2023-04-08T09:45:24;98515.88;;;53.43;7.07
20350;BME280;10332;50.208;18.988;2023-04-08T09:50:31;98513.00;;;55.54;6.48
20350;BME280;10332;50.208;18.988;2023-04-08T09:53:24;98507.78;;;55.52;6.27
20350;BME280;10332;50.208;18.988;2023-04-08T09:55:56;98506.78;;;56.07;5.85
20350;BME280;10332;50.208;18.988;2023-04-08T09:58:34;98513.56;;;57.38;5.97
20350;BME280;10332;50.208;18.988;2023-04-08T10:01:06;98496.66;;;49.16;8.39
20350;BME280;10332;50.208;18.988;2023-04-08T10:03:53;98489.69;;;48.04;8.92
20350;BME280;10332;50.208;18.988;2023-04-08T10:06:27;98486.09;;;43.22;10.96
20350;BME280;10332;50.208;18.988;2023-04-08T10:08:56;98487.66;;;38.70;12.97
20350;BME280;10332;50.208;18.988;2023-04-08T10:11:24;98490.50;;;34.02;15.72
20350;BME280;10332;50.208;18.988;2023-04-08T10:13:52;98495.91;;;33.28;16.48
20350;BME280;10332;50.208;18.988;2023-04-08T10:16:24;98485.22;;;31.40;17.50
20350;BME280;10332;50.208;18.988;2023-04-08T10:18:54;98498.22;;;30.01;18.83
20350;BME280;10332;50.208;18.988;2023-04-08T10:21:41;98490.25;;;27.20;21.11
20350;BME280;10332;50.208;18.988;2023-04-08T10:24:16;98489.34;;;24.79;24.33
20350;BME280;10332;50.208;18.988;2023-04-08T10:26:45;98492.88;;;23.89;25.23
20350;BME280;10332;50.208;18.988;2023-04-08T10:31:46;98485.00;;;23.50;26.13
20350;BME280;10332;50.208;18.988;2023-04-08T10:34:22;98488.19;;;27.15;22.66
20350;BME280;10332;50.208;18.988;2023-04-08T10:36:54;98489.06;;;38.01;14.79
20350;BME280;10332;50.208;18.988;2023-04-08T10:39:24;98501.63;;;44.13;11.06
20350;BME280;10332;50.208;18.988;2023-04-08T10:41:53;98503.78;;;47.78;9.17
20350;BME280;10332;50.208;18.988;2023-04-08T10:44:24;98503.72;;;50.22;8.34
20350;BME280;10332;50.208;18.988;2023-04-08T10:46:53;98506.63;;;46.89;8.97
20350;BME280;10332;50.208;18.988;2023-04-08T10:49:20;98519.84;;;45.42;9.73
20350;BME280;10332;50.208;18.988;2023-04-08T10:51:48;98500.66;;;40.32;12.32
20350;BME280;10332;50.208;18.988;2023-04-08T10:54:17;98497.06;;;36.30;14.24
20350;BME280;10332;50.208;18.988;2023-04-08T10:56:50;98498.03;;;36.93;14.15
20350;BME280;10332;50.208;18.988;2023-04-08T10:59:29;98496.81;;;32.12;17.00
20350;BME280;10332;50.208;18.988;2023-04-08T11:01:59;98490.31;;;34.59;15.34
20350;BME280;10332;50.208;18.988;2023-04-08T11:04:27;98496.06;;;37.46;14.41
20350;BME280;10332;50.208;18.988;2023-04-08T11:06:55;98487.72;;;34.14;15.54
20350;BME280;10332;50.208;18.988;2023-04-08T11:09:24;98492.94;;;29.18;18.70
20350;BME280;10332;50.208;18.988;2023-04-08T11:11:52;98497.28;;;26.45;21.49
20350;BME280;10332;50.208;18.988;2023-04-08T11:14:20;98494.06;;;24.47;23.27
20350;BME280;10332;50.208;18.988;2023-04-08T11:16:48;98500.09;;;23.66;24.19
20350;BME280;10332;50.208;18.988;2023-04-08T11:19:17;98500.53;;;22.68;25.57
20350;BME280;10332;50.208;18.988;2023-04-08T11:21:45;98504.09;;;22.03;26.50
20350;BME280;10332;50.208;18.988;2023-04-08T11:24:12;98493.72;;;21.27;27.45
20350;BME280;10332;50.208;18.988;2023-04-08T11:26:41;98499.53;;;20.54;28.78
20350;BME280;10332;50.208;18.988;2023-04-08T11:29:10;98492.78;;;20.34;28.96
20350;BME280;10332;50.208;18.988;2023-04-08T11:31:42;98494.44;;;19.55;29.78
20350;BME280;10332;50.208;18.988;2023-04-08T11:34:10;98499.56;;;19.21;30.09
20350;BME280;10332;50.208;18.988;2023-04-08T11:36:39;98502.50;;;18.54;31.45
20350;BME280;10332;50.208;18.988;2023-04-08T11:39:10;98498.06;;;18.91;31.32
20350;BME280;10332;50.208;18.988;2023-04-08T11:41:39;98504.97;;;19.02;31.88
20350;BME280;10332;50.208;18.988;2023-04-08T11:44:09;98501.91;;;19.24;31.70
20350;BME280;10332;50.208;18.988;2023-04-08T11:46:37;98496.81;;;19.76;30.89
20350;BME280;10332;50.208;18.988;2023-04-08T11:49:07;98504.44;;;19.44;30.94
20350;BME280;10332;50.208;18.988;2023-04-08T11:51:57;98500.00;;;19.17;31.65
20350;BME280;10332;50.208;18.988;2023-04-08T11:54:30;98499.34;;;18.87;32.32
20350;BME280;10332;50.208;18.988;2023-04-08T11:56:58;98502.72;;;18.23;33.31
20350;BME280;10332;50.208;18.988;2023-04-08T11:59:27;98499.56;;;17.62;33.44
20350;BME280;10332;50.208;18.988;2023-04-08T12:01:56;98501.94;;;16.55;35.25
20350;BME280;10332;50.208;18.988;2023-04-08T12:04:25;98508.97;;;16.24;35.98
20350;BME280;10332;50.208;18.988;2023-04-08T12:06:53;98501.28;;;15.58;37.21
20350;BME280;10332;50.208;18.988;2023-04-08T12:09:22;98515.97;;;15.18;37.84
20350;BME280;10332;50.208;18.988;2023-04-08T12:11:50;98521.16;;;14.97;38.25
20350;BME280;10332;50.208;18.988;2023-04-08T12:14:17;98501.84;;;14.75;39.19
20350;BME280;10332;50.208;18.988;2023-04-08T12:16:45;98501.94;;;14.85;39.18
20350;BME280;10332;50.208;18.988;2023-04-08T12:19:12;98508.03;;;14.52;40.02
20350;BME280;10332;50.208;18.988;2023-04-08T12:21:40;98510.06;;;14.48;40.42
20350;BME280;10332;50.208;18.988;2023-04-08T12:24:07;98511.97;;;14.46;40.80
20350;BME280;10332;50.208;18.988;2023-04-08T12:26:35;98509.25;;;14.59;40.60
20350;BME280;10332;50.208;18.988;2023-04-08T12:29:02;98508.59;;;14.33;42.19
20350;BME280;10332;50.208;18.988;2023-04-08T12:31:30;98509.09;;;14.38;42.18
20350;BME280;10332;50.208;18.988;2023-04-08T12:33:58;98517.44;;;14.32;42.74
20350;BME280;10332;50.208;18.988;2023-04-08T12:36:25;98508.75;;;13.85;43.96
20350;BME280;10332;50.208;18.988;2023-04-08T12:38:53;98515.09;;;13.94;44.16
20350;BME280;10332;50.208;18.988;2023-04-08T12:41:20;98505.69;;;13.68;45.19
20350;BME280;10332;50.208;18.988;2023-04-08T12:43:48;98517.03;;;13.44;46.21
20350;BME280;10332;50.208;18.988;2023-04-08T12:46:15;98521.81;;;13.26;47.11
20350;BME280;10332;50.208;18.988;2023-04-08T12:48:42;98513.88;;;13.15;47.75
20350;BME280;10332;50.208;18.988;2023-04-08T12:51:11;98513.03;;;13.15;48.30
20350;BME280;10332;50.208;18.988;2023-04-08T12:53:38;98515.06;;;12.98;49.18
20350;BME280;10332;50.208;18.988;2023-04-08T12:56:06;98523.81;;;12.86;50.23
20350;BME280;10332;50.208;18.988;2023-04-08T12:58:33;98520.72;;;12.92;52.20
20350;BME280;10332;50.208;18.988;2023-04-08T13:01:01;98522.63;;;13.03;52.58
20350;BME280;10332;50.208;18.988;2023-04-08T13:03:28;98532.88;;;12.93;55.50
20350;BME280;10332;50.208;18.988;2023-04-08T13:05:58;98527.50;;;13.20;54.50
20350;BME280;10332;50.208;18.988;2023-04-08T13:08:25;98521.03;;;13.00;56.34
20350;BME280;10332;50.208;18.988;2023-04-08T13:10:53;98524.00;;;12.96;55.71
20350;BME280;10332;50.208;18.988;2023-04-08T13:13:23;98527.38;;;12.85;55.98
20350;BME280;10332;50.208;18.988;2023-04-08T13:15:51;98528.78;;;12.53;57.52
20350;BME280;10332;50.208;18.988;2023-04-08T13:18:18;98531.06;;;12.70;56.83
20350;BME280;10332;50.208;18.988;2023-04-08T13:20:46;98530.16;;;12.58;56.34